sensor_id;sensor_type;location;lat;lon;timestamp;P1;durP1;ratioP1;P2;durP2;ratioP2
35518;SDS011;21627;48.216;16.482;2023-06-22T00:00:15;18.70;;;7.90;;
35518;SDS011;21627;48.216;16.482;2023-06-22T00:02:42;18.90;;;7.22;;
35518;SDS011;21627;48.216;16.482;2023-06-22T00:05:09;16.92;;;7.13;;
35518;SDS011;21627;48.216;16.482;2023-06-22T00:07:36;22.23;;;7.57;;
35518;SDS011;21627;48.216;16.482;2023-06-22T00:10:03;23.30;;;8.07;;
35518;SDS011;21627;48.216;16.482;2023-06-22T00:12:31;32.83;;;7.43;;
35518;SDS011;21627;48.216;16.482;2023-06-22T00:14:58;16.08;;;6.88;;
35518;SDS011;21627;48.216;16.482;2023-06-22T00:17:26;19.02;;;7.65;;
35518;SDS011;21627;48.216;16.482;2023-06-22T00:19:53;19.35;;;6.88;;
35518;SDS011;21627;48.216;16.482;2023-06-22T00:22:21;31.10;;;7.45;;
35518;SDS011;21627;48.216;16.482;2023-06-22T00:24:56;17.50;;;6.95;;
35518;SDS011;21627;48.216;16.482;2023-06-22T00:27:23;24.80;;;7.55;;
35518;SDS011;21627;48.216;16.482;2023-06-22T00:29:50;21.00;;;7.50;;
35518;SDS011;21627;48.216;16.482;2023-06-22T00:32:18;32.47;;;8.20;;
35518;SDS011;21627;48.216;16.482;2023-06-22T00:34:45;17.40;;;6.78;;
35518;SDS011;21627;48.216;16.482;2023-06-22T00:37:12;21.98;;;7.07;;
35518;SDS011;21627;48.216;16.482;2023-06-22T00:39:39;17.92;;;6.85;;
35518;SDS011;21627;48.216;16.482;2023-06-22T00:42:07;18.00;;;6.93;;
35518;SDS011;21627;48.216;16.482;2023-06-22T00:44:34;31.83;;;6.95;;
35518;SDS011;21627;48.216;16.482;2023-06-22T00:47:02;13.75;;;6.72;;
35518;SDS011;21627;48.216;16.482;2023-06-22T00:49:30;22.27;;;7.32;;
35518;SDS011;21627;48.216;16.482;2023-06-22T00:51:58;23.65;;;6.97;;
35518;SDS011;21627;48.216;16.482;2023-06-22T00:54:25;24.58;;;7.85;;
35518;SDS011;21627;48.216;16.482;2023-06-22T00:56:55;16.92;;;6.90;;
35518;SDS011;21627;48.216;16.482;2023-06-22T00:59:26;23.05;;;7.10;;
35518;SDS011;21627;48.216;16.482;2023-06-22T01:01:54;19.92;;;6.78;;
35518;SDS011;21627;48.216;16.482;2023-06-22T01:04:24;22.10;;;7.10;;
35518;SDS011;21627;48.216;16.482;2023-06-22T01:12:51;17.38;;;5.97;;
35518;SDS011;21627;48.216;16.482;2023-06-22T01:18:19;19.55;;;7.35;;
35518;SDS011;21627;48.216;16.482;2023-06-22T01:20:53;17.20;;;7.35;;
35518;SDS011;21627;48.216;16.482;2023-06-22T01:26:25;20.75;;;7.40;;
35518;SDS011;21627;48.216;16.482;2023-06-22T01:29:23;27.23;;;7.63;;
35518;SDS011;21627;48.216;16.482;2023-06-22T01:31:53;30.60;;;9.98;;
35518;SDS011;21627;48.216;16.482;2023-06-22T01:34:22;27.67;;;8.95;;
35518;SDS011;21627;48.216;16.482;2023-06-22T01:36:50;23.08;;;8.55;;
35518;SDS011;21627;48.216;16.482;2023-06-22T01:39:19;17.58;;;8.00;;
35518;SDS011;21627;48.216;16.482;2023-06-22T01:41:47;20.13;;;8.43;;
35518;SDS011;21627;48.216;16.482;2023-06-22T01:44:15;18.50;;;7.57;;
35518;SDS011;21627;48.216;16.482;2023-06-22T01:46:43;24.35;;;8.60;;
35518;SDS011;21627;48.216;16.482;2023-06-22T01:49:11;24.55;;;7.82;;
35518;SDS011;21627;48.216;16.482;2023-06-22T01:51:39;18.95;;;7.63;;
35518;SDS011;21627;48.216;16.482;2023-06-22T01:54:06;18.80;;;8.40;;
35518;SDS011;21627;48.216;16.482;2023-06-22T01:56:34;21.25;;;7.30;;
35518;SDS011;21627;48.216;16.482;2023-06-22T02:01:57;25.38;;;8.25;;
35518;SDS011;21627;48.216;16.482;2023-06-22T02:04:54;17.30;;;6.90;;
35518;SDS011;21627;48.216;16.482;2023-06-22T02:07:34;17.23;;;7.32;;
35518;SDS011;21627;48.216;16.482;2023-06-22T02:10:11;28.90;;;7.20;;
35518;SDS011;21627;48.216;16.482;2023-06-22T02:12:42;17.17;;;7.07;;
35518;SDS011;21627;48.216;16.482;2023-06-22T02:15:10;12.88;;;6.70;;
35518;SDS011;21627;48.216;16.482;2023-06-22T02:17:39;21.73;;;8.27;;
35518;SDS011;21627;48.216;16.482;2023-06-22T02:20:12;15.32;;;7.45;;
35518;SDS011;21627;48.216;16.482;2023-06-22T02:22:40;30.67;;;7.93;;
35518;SDS011;21627;48.216;16.482;2023-06-22T02:25:08;16.13;;;6.78;;
35518;SDS011;21627;48.216;16.482;2023-06-22T02:27:35;24.38;;;7.90;;
35518;SDS011;21627;48.216;16.482;2023-06-22T02:30:09;16.60;;;7.07;;
35518;SDS011;21627;48.216;16.482;2023-06-22T02:32:36;13.85;;;7.45;;
35518;SDS011;21627;48.216;16.482;2023-06-22T02:35:04;15.38;;;7.68;;
35518;SDS011;21627;48.216;16.482;2023-06-22T02:37:34;26.73;;;9.02;;
35518;SDS011;21627;48.216;16.482;2023-06-22T02:40:05;14.05;;;6.55;;
35518;SDS011;21627;48.216;16.482;2023-06-22T02:42:35;19.38;;;8.90;;
35518;SDS011;21627;48.216;16.482;2023-06-22T02:45:04;16.90;;;7.57;;
35518;SDS011;21627;48.216;16.482;2023-06-22T02:47:31;23.20;;;7.20;;
35518;SDS011;21627;48.216;16.482;2023-06-22T02:49:59;19.40;;;8.35;;
35518;SDS011;21627;48.216;16.482;2023-06-22T02:52:26;22.65;;;7.13;;
35518;SDS011;21627;48.216;16.482;2023-06-22T02:54:53;17.13;;;7.55;;
35518;SDS011;21627;48.216;16.482;2023-06-22T02:57:20;21.48;;;8.13;;
35518;SDS011;21627;48.216;16.482;2023-06-22T02:59:47;23.05;;;7.63;;
35518;SDS011;21627;48.216;16.482;2023-06-22T03:02:17;16.92;;;7.25;;
35518;SDS011;21627;48.216;16.482;2023-06-22T03:04:47;16.33;;;7.22;;
35518;SDS011;21627;48.216;16.482;2023-06-22T03:07:15;17.90;;;7.38;;
35518;SDS011;21627;48.216;16.482;2023-06-22T03:09:44;25.45;;;8.40;;
35518;SDS011;21627;48.216;16.482;2023-06-22T03:12:11;30.10;;;8.88;;
35518;SDS011;21627;48.216;16.482;2023-06-22T03:14:38;20.33;;;7.68;;
35518;SDS011;21627;48.216;16.482;2023-06-22T03:17:05;23.83;;;8.07;;
35518;SDS011;21627;48.216;16.482;2023-06-22T03:19:32;26.45;;;8.07;;
35518;SDS011;21627;48.216;16.482;2023-06-22T03:21:59;22.55;;;8.32;;
35518;SDS011;21627;48.216;16.482;2023-06-22T03:24:27;20.63;;;8.88;;
35518;SDS011;21627;48.216;16.482;2023-06-22T03:26:56;28.77;;;8.30;;
35518;SDS011;21627;48.216;16.482;2023-06-22T03:29:23;24.85;;;7.72;;
35518;SDS011;21627;48.216;16.482;2023-06-22T03:31:54;28.20;;;8.68;;
35518;SDS011;21627;48.216;16.482;2023-06-22T03:34:22;27.70;;;8.23;;
35518;SDS011;21627;48.216;16.482;2023-06-22T03:36:49;13.55;;;7.90;;
35518;SDS011;21627;48.216;16.482;2023-06-22T03:39:16;16.77;;;7.57;;
35518;SDS011;21627;48.216;16.482;2023-06-22T03:41:43;22.35;;;8.80;;
35518;SDS011;21627;48.216;16.482;2023-06-22T03:44:10;21.45;;;7.55;;
35518;SDS011;21627;48.216;16.482;2023-06-22T03:46:38;20.52;;;7.40;;
35518;SDS011;21627;48.216;16.482;2023-06-22T03:49:06;17.42;;;7.80;;
35518;SDS011;21627;48.216;16.482;2023-06-22T03:51:33;15.40;;;7.60;;
35518;SDS011;21627;48.216;16.482;2023-06-22T03:54:00;19.95;;;8.50;;
35518;SDS011;21627;48.216;16.482;2023-06-22T03:56:27;20.48;;;7.30;;
35518;SDS011;21627;48.216;16.482;2023-06-22T03:58:54;21.52;;;8.82;;
35518;SDS011;21627;48.216;16.482;2023-06-22T04:01:21;20.73;;;8.95;;
35518;SDS011;21627;48.216;16.482;2023-06-22T04:03:48;17.75;;;7.85;;
35518;SDS011;21627;48.216;16.482;2023-06-22T04:06:16;23.30;;;9.57;;
35518;SDS011;21627;48.216;16.482;2023-06-22T04:08:45;26.35;;;8.63;;
35518;SDS011;21627;48.216;16.482;2023-06-22T04:11:17;21.80;;;8.65;;
35518;SDS011;21627;48.216;16.482;2023-06-22T04:13:45;20.88;;;10.15;;
35518;SDS011;21627;48.216;16.482;2023-06-22T04:16:12;19.65;;;9.35;;
35518;SDS011;21627;48.216;16.482;2023-06-22T04:18:39;24.88;;;9.98;;
35518;SDS011;21627;48.216;16.482;2023-06-22T04:21:06;19.05;;;8.95;;
35518;SDS011;21627;48.216;16.482;2023-06-22T04:23:33;19.73;;;9.35;;
35518;SDS011;21627;48.216;16.482;2023-06-22T04:26:00;18.02;;;8.55;;
35518;SDS011;21627;48.216;16.482;2023-06-22T04:28:27;26.45;;;9.32;;
35518;SDS011;21627;48.216;16.482;2023-06-22T04:30:55;19.77;;;9.07;;
35518;SDS011;21627;48.216;16.482;2023-06-22T04:33:29;24.42;;;9.75;;
35518;SDS011;21627;48.216;16.482;2023-06-22T04:35:56;27.25;;;9.10;;
35518;SDS011;21627;48.216;16.482;2023-06-22T04:38:25;21.08;;;9.40;;
35518;SDS011;21627;48.216;16.482;2023-06-22T04:40:52;26.25;;;8.93;;
35518;SDS011;21627;48.216;16.482;2023-06-22T04:43:20;18.42;;;9.25;;
35518;SDS011;21627;48.216;16.482;2023-06-22T04:45:47;27.27;;;10.25;;
35518;SDS011;21627;48.216;16.482;2023-06-22T04:48:19;23.83;;;9.45;;
35518;SDS011;21627;48.216;16.482;2023-06-22T04:50:46;25.92;;;10.13;;
35518;SDS011;21627;48.216;16.482;2023-06-22T04:53:13;22.38;;;10.80;;
35518;SDS011;21627;48.216;16.482;2023-06-22T04:55:40;27.90;;;10.05;;
35518;SDS011;21627;48.216;16.482;2023-06-22T04:58:08;18.45;;;8.77;;
35518;SDS011;21627;48.216;16.482;2023-06-22T05:00:35;24.17;;;9.40;;
35518;SDS011;21627;48.216;16.482;2023-06-22T05:03:05;24.38;;;10.10;;
35518;SDS011;21627;48.216;16.482;2023-06-22T05:05:45;28.05;;;10.85;;
35518;SDS011;21627;48.216;16.482;2023-06-22T05:08:13;28.13;;;9.70;;
35518;SDS011;21627;48.216;16.482;2023-06-22T05:10:40;25.23;;;10.02;;
35518;SDS011;21627;48.216;16.482;2023-06-22T05:13:27;22.63;;;10.15;;
35518;SDS011;21627;48.216;16.482;2023-06-22T05:15:54;36.58;;;11.23;;
35518;SDS011;21627;48.216;16.482;2023-06-22T05:18:29;16.33;;;9.25;;
35518;SDS011;21627;48.216;16.482;2023-06-22T05:20:59;23.33;;;10.68;;
35518;SDS011;21627;48.216;16.482;2023-06-22T05:23:27;21.98;;;11.20;;
35518;SDS011;21627;48.216;16.482;2023-06-22T05:25:54;26.23;;;12.13;;
35518;SDS011;21627;48.216;16.482;2023-06-22T05:28:24;33.97;;;11.93;;
35518;SDS011;21627;48.216;16.482;2023-06-22T05:30:51;26.70;;;10.93;;
35518;SDS011;21627;48.216;16.482;2023-06-22T05:33:18;23.02;;;9.93;;
35518;SDS011;21627;48.216;16.482;2023-06-22T05:35:45;30.48;;;10.15;;
35518;SDS011;21627;48.216;16.482;2023-06-22T05:38:13;28.10;;;11.30;;
35518;SDS011;21627;48.216;16.482;2023-06-22T05:40:40;30.10;;;11.45;;
35518;SDS011;21627;48.216;16.482;2023-06-22T05:43:08;30.63;;;11.25;;
35518;SDS011;21627;48.216;16.482;2023-06-22T05:45:35;29.15;;;11.20;;
35518;SDS011;21627;48.216;16.482;2023-06-22T05:48:02;28.67;;;11.20;;
35518;SDS011;21627;48.216;16.482;2023-06-22T05:50:30;29.52;;;10.10;;
35518;SDS011;21627;48.216;16.482;2023-06-22T05:52:58;24.38;;;9.60;;
35518;SDS011;21627;48.216;16.482;2023-06-22T05:55:25;20.25;;;10.68;;
35518;SDS011;21627;48.216;16.482;2023-06-22T05:57:52;31.42;;;11.52;;
35518;SDS011;21627;48.216;16.482;2023-06-22T06:00:19;31.33;;;10.35;;
35518;SDS011;21627;48.216;16.482;2023-06-22T06:02:48;29.13;;;11.30;;
35518;SDS011;21627;48.216;16.482;2023-06-22T06:05:15;23.52;;;12.07;;
35518;SDS011;21627;48.216;16.482;2023-06-22T06:07:42;30.58;;;12.60;;
35518;SDS011;21627;48.216;16.482;2023-06-22T06:10:11;27.38;;;13.15;;
35518;SDS011;21627;48.216;16.482;2023-06-22T06:12:39;40.15;;;13.70;;
35518;SDS011;21627;48.216;16.482;2023-06-22T06:15:06;27.67;;;12.02;;
35518;SDS011;21627;48.216;16.482;2023-06-22T06:17:44;32.45;;;14.00;;
35518;SDS011;21627;48.216;16.482;2023-06-22T06:20:17;29.08;;;14.93;;
35518;SDS011;21627;48.216;16.482;2023-06-22T06:22:47;31.13;;;12.52;;
35518;SDS011;21627;48.216;16.482;2023-06-22T06:25:15;28.67;;;13.27;;
35518;SDS011;21627;48.216;16.482;2023-06-22T06:27:48;26.65;;;11.93;;
35518;SDS011;21627;48.216;16.482;2023-06-22T06:30:18;30.58;;;13.85;;
35518;SDS011;21627;48.216;16.482;2023-06-22T06:32:46;28.17;;;13.20;;
35518;SDS011;21627;48.216;16.482;2023-06-22T06:35:14;26.80;;;12.48;;
35518;SDS011;21627;48.216;16.482;2023-06-22T06:37:45;29.45;;;12.80;;
35518;SDS011;21627;48.216;16.482;2023-06-22T06:40:15;24.88;;;11.55;;
35518;SDS011;21627;48.216;16.482;2023-06-22T06:42:44;32.58;;;12.95;;
35518;SDS011;21627;48.216;16.482;2023-06-22T06:45:18;23.13;;;12.60;;
35518;SDS011;21627;48.216;16.482;2023-06-22T06:47:50;30.90;;;13.68;;
35518;SDS011;21627;48.216;16.482;2023-06-22T06:50:18;27.95;;;12.77;;
35518;SDS011;21627;48.216;16.482;2023-06-22T06:52:46;31.63;;;13.82;;
35518;SDS011;21627;48.216;16.482;2023-06-22T06:55:13;24.90;;;11.60;;
35518;SDS011;21627;48.216;16.482;2023-06-22T06:57:41;30.20;;;13.82;;
35518;SDS011;21627;48.216;16.482;2023-06-22T07:00:10;30.67;;;12.55;;
35518;SDS011;21627;48.216;16.482;2023-06-22T07:02:43;26.33;;;11.48;;
35518;SDS011;21627;48.216;16.482;2023-06-22T07:05:12;25.13;;;12.02;;
35518;SDS011;21627;48.216;16.482;2023-06-22T07:07:39;29.90;;;13.18;;
35518;SDS011;21627;48.216;16.482;2023-06-22T07:10:08;29.02;;;13.07;;
35518;SDS011;21627;48.216;16.482;2023-06-22T07:12:36;30.73;;;11.75;;
35518;SDS011;21627;48.216;16.482;2023-06-22T07:15:07;28.63;;;12.40;;
35518;SDS011;21627;48.216;16.482;2023-06-22T07:17:36;23.00;;;11.20;;
35518;SDS011;21627;48.216;16.482;2023-06-22T07:20:05;26.90;;;11.75;;
35518;SDS011;21627;48.216;16.482;2023-06-22T07:22:39;22.52;;;12.32;;
35518;SDS011;21627;48.216;16.482;2023-06-22T07:25:07;27.98;;;12.32;;
35518;SDS011;21627;48.216;16.482;2023-06-22T07:28:00;38.40;;;11.57;;
35518;SDS011;21627;48.216;16.482;2023-06-22T07:30:30;20.92;;;11.32;;
35518;SDS011;21627;48.216;16.482;2023-06-22T07:32:59;37.92;;;12.90;;
35518;SDS011;21627;48.216;16.482;2023-06-22T07:35:31;24.77;;;12.00;;
35518;SDS011;21627;48.216;16.482;2023-06-22T07:37:59;29.13;;;11.50;;
35518;SDS011;21627;48.216;16.482;2023-06-22T07:40:31;27.50;;;11.95;;
35518;SDS011;21627;48.216;16.482;2023-06-22T07:42:58;28.90;;;11.65;;
35518;SDS011;21627;48.216;16.482;2023-06-22T07:45:25;30.08;;;10.65;;
35518;SDS011;21627;48.216;16.482;2023-06-22T07:47:52;32.03;;;10.63;;
35518;SDS011;21627;48.216;16.482;2023-06-22T07:50:19;26.77;;;10.13;;
35518;SDS011;21627;48.216;16.482;2023-06-22T07:52:47;23.10;;;9.52;;
35518;SDS011;21627;48.216;16.482;2023-06-22T07:55:14;30.05;;;10.77;;
35518;SDS011;21627;48.216;16.482;2023-06-22T07:57:41;26.75;;;9.55;;
35518;SDS011;21627;48.216;16.482;2023-06-22T08:00:09;24.88;;;10.02;;
35518;SDS011;21627;48.216;16.482;2023-06-22T08:02:42;22.85;;;9.60;;
35518;SDS011;21627;48.216;16.482;2023-06-22T08:05:12;23.77;;;10.02;;
35518;SDS011;21627;48.216;16.482;2023-06-22T08:07:59;16.30;;;8.93;;
35518;SDS011;21627;48.216;16.482;2023-06-22T08:10:26;22.85;;;9.27;;
35518;SDS011;21627;48.216;16.482;2023-06-22T08:12:54;19.98;;;8.32;;
35518;SDS011;21627;48.216;16.482;2023-06-22T08:15:21;32.42;;;9.20;;
35518;SDS011;21627;48.216;16.482;2023-06-22T08:17:51;22.95;;;8.85;;
35518;SDS011;21627;48.216;16.482;2023-06-22T08:20:19;20.17;;;8.23;;
35518;SDS011;21627;48.216;16.482;2023-06-22T08:22:46;24.65;;;8.80;;
35518;SDS011;21627;48.216;16.482;2023-06-22T08:25:13;19.65;;;8.43;;
35518;SDS011;21627;48.216;16.482;2023-06-22T08:27:44;23.80;;;8.20;;
35518;SDS011;21627;48.216;16.482;2023-06-22T08:30:13;22.63;;;9.35;;
35518;SDS011;21627;48.216;16.482;2023-06-22T08:32:41;29.17;;;9.48;;
35518;SDS011;21627;48.216;16.482;2023-06-22T08:35:08;27.13;;;8.13;;
35518;SDS011;21627;48.216;16.482;2023-06-22T08:37:36;18.92;;;7.43;;
35518;SDS011;21627;48.216;16.482;2023-06-22T08:40:06;32.38;;;10.15;;
35518;SDS011;21627;48.216;16.482;2023-06-22T08:42:37;16.55;;;7.53;;
35518;SDS011;21627;48.216;16.482;2023-06-22T08:45:06;15.70;;;7.35;;
35518;SDS011;21627;48.216;16.482;2023-06-22T08:47:34;16.42;;;7.93;;
35518;SDS011;21627;48.216;16.482;2023-06-22T08:50:02;18.58;;;7.25;;
35518;SDS011;21627;48.216;16.482;2023-06-22T08:52:30;23.75;;;8.48;;
35518;SDS011;21627;48.216;16.482;2023-06-22T08:54:57;18.73;;;7.60;;
35518;SDS011;21627;48.216;16.482;2023-06-22T08:57:25;17.90;;;7.32;;
35518;SDS011;21627;48.216;16.482;2023-06-22T08:59:52;25.15;;;8.93;;
35518;SDS011;21627;48.216;16.482;2023-06-22T09:02:20;33.97;;;9.00;;
35518;SDS011;21627;48.216;16.482;2023-06-22T09:04:47;19.83;;;7.90;;
35518;SDS011;21627;48.216;16.482;2023-06-22T09:07:15;19.85;;;8.13;;
35518;SDS011;21627;48.216;16.482;2023-06-22T09:09:48;18.75;;;7.68;;
35518;SDS011;21627;48.216;16.482;2023-06-22T09:12:16;19.42;;;7.85;;
35518;SDS011;21627;48.216;16.482;2023-06-22T09:14:49;16.73;;;6.57;;
35518;SDS011;21627;48.216;16.482;2023-06-22T09:17:16;15.70;;;7.53;;
35518;SDS011;21627;48.216;16.482;2023-06-22T09:19:43;18.88;;;7.28;;
35518;SDS011;21627;48.216;16.482;2023-06-22T09:22:10;22.30;;;7.10;;
35518;SDS011;21627;48.216;16.482;2023-06-22T09:24:40;23.15;;;7.47;;
35518;SDS011;21627;48.216;16.482;2023-06-22T09:27:07;15.68;;;6.93;;
35518;SDS011;21627;48.216;16.482;2023-06-22T09:29:34;20.55;;;7.60;;
35518;SDS011;21627;48.216;16.482;2023-06-22T09:32:01;12.77;;;6.82;;
35518;SDS011;21627;48.216;16.482;2023-06-22T09:34:29;22.35;;;7.30;;
35518;SDS011;21627;48.216;16.482;2023-06-22T09:36:57;18.85;;;7.50;;
35518;SDS011;21627;48.216;16.482;2023-06-22T09:39:27;15.82;;;7.43;;
35518;SDS011;21627;48.216;16.482;2023-06-22T09:41:54;17.02;;;6.57;;
35518;SDS011;21627;48.216;16.482;2023-06-22T09:44:21;13.43;;;6.20;;
35518;SDS011;21627;48.216;16.482;2023-06-22T09:46:48;27.08;;;7.07;;
35518;SDS011;21627;48.216;16.482;2023-06-22T09:49:15;17.65;;;6.53;;
35518;SDS011;21627;48.216;16.482;2023-06-22T09:51:43;15.40;;;6.50;;
35518;SDS011;21627;48.216;16.482;2023-06-22T09:54:10;12.73;;;5.90;;
35518;SDS011;21627;48.216;16.482;2023-06-22T09:56:37;12.02;;;5.68;;
35518;SDS011;21627;48.216;16.482;2023-06-22T09:59:04;12.93;;;6.15;;
35518;SDS011;21627;48.216;16.482;2023-06-22T10:01:43;15.75;;;6.20;;
35518;SDS011;21627;48.216;16.482;2023-06-22T10:04:11;15.80;;;5.93;;
35518;SDS011;21627;48.216;16.482;2023-06-22T10:06:38;20.55;;;6.05;;
35518;SDS011;21627;48.216;16.482;2023-06-22T10:09:07;13.75;;;5.88;;
35518;SDS011;21627;48.216;16.482;2023-06-22T10:11:34;10.75;;;6.50;;
35518;SDS011;21627;48.216;16.482;2023-06-22T10:14:03;15.07;;;5.05;;
35518;SDS011;21627;48.216;16.482;2023-06-22T10:16:31;17.52;;;4.88;;
35518;SDS011;21627;48.216;16.482;2023-06-22T10:18:58;15.45;;;5.13;;
35518;SDS011;21627;48.216;16.482;2023-06-22T10:21:26;16.15;;;4.32;;
35518;SDS011;21627;48.216;16.482;2023-06-22T10:23:54;13.63;;;4.97;;
35518;SDS011;21627;48.216;16.482;2023-06-22T10:26:22;14.05;;;3.95;;
35518;SDS011;21627;48.216;16.482;2023-06-22T10:28:49;8.75;;;3.67;;
35518;SDS011;21627;48.216;16.482;2023-06-22T10:31:25;14.40;;;3.92;;
35518;SDS011;21627;48.216;16.482;2023-06-22T10:33:54;17.35;;;3.72;;
35518;SDS011;21627;48.216;16.482;2023-06-22T10:36:22;11.35;;;4.13;;
35518;SDS011;21627;48.216;16.482;2023-06-22T10:38:49;19.10;;;3.33;;
35518;SDS011;21627;48.216;16.482;2023-06-22T10:41:16;9.02;;;3.38;;
35518;SDS011;21627;48.216;16.482;2023-06-22T10:43:43;8.93;;;3.80;;
35518;SDS011;21627;48.216;16.482;2023-06-22T10:46:10;10.55;;;4.00;;
35518;SDS011;21627;48.216;16.482;2023-06-22T10:48:38;13.57;;;5.07;;
35518;SDS011;21627;48.216;16.482;2023-06-22T10:51:05;15.07;;;4.30;;
35518;SDS011;21627;48.216;16.482;2023-06-22T10:53:32;13.75;;;4.60;;
35518;SDS011;21627;48.216;16.482;2023-06-22T10:55:59;11.75;;;4.80;;
35518;SDS011;21627;48.216;16.482;2023-06-22T10:58:27;13.93;;;4.00;;
35518;SDS011;21627;48.216;16.482;2023-06-22T11:00:54;10.40;;;4.70;;
35518;SDS011;21627;48.216;16.482;2023-06-22T11:03:21;15.68;;;5.25;;
35518;SDS011;21627;48.216;16.482;2023-06-22T11:05:49;9.57;;;5.18;;
35518;SDS011;21627;48.216;16.482;2023-06-22T11:08:16;21.45;;;6.38;;
35518;SDS011;21627;48.216;16.482;2023-06-22T11:10:43;16.20;;;6.85;;
35518;SDS011;21627;48.216;16.482;2023-06-22T11:13:10;13.07;;;5.50;;
35518;SDS011;21627;48.216;16.482;2023-06-22T11:15:38;15.48;;;6.05;;
35518;SDS011;21627;48.216;16.482;2023-06-22T11:18:05;13.70;;;5.50;;
35518;SDS011;21627;48.216;16.482;2023-06-22T11:20:33;12.50;;;5.70;;
35518;SDS011;21627;48.216;16.482;2023-06-22T11:23:05;13.35;;;5.88;;
35518;SDS011;21627;48.216;16.482;2023-06-22T11:25:33;18.90;;;5.00;;
35518;SDS011;21627;48.216;16.482;2023-06-22T11:28:04;14.38;;;5.07;;
35518;SDS011;21627;48.216;16.482;2023-06-22T11:30:31;20.75;;;5.20;;
35518;SDS011;21627;48.216;16.482;2023-06-22T11:32:58;13.40;;;4.78;;
35518;SDS011;21627;48.216;16.482;2023-06-22T11:35:26;14.95;;;5.07;;
35518;SDS011;21627;48.216;16.482;2023-06-22T11:37:53;22.38;;;5.20;;
35518;SDS011;21627;48.216;16.482;2023-06-22T11:40:22;13.52;;;4.72;;
35518;SDS011;21627;48.216;16.482;2023-06-22T11:42:49;14.68;;;4.65;;
35518;SDS011;21627;48.216;16.482;2023-06-22T11:45:16;17.05;;;4.80;;
35518;SDS011;21627;48.216;16.482;2023-06-22T11:47:45;12.10;;;4.82;;
35518;SDS011;21627;48.216;16.482;2023-06-22T11:50:12;22.70;;;4.88;;
35518;SDS011;21627;48.216;16.482;2023-06-22T11:52:40;17.88;;;3.92;;
35518;SDS011;21627;48.216;16.482;2023-06-22T11:55:07;12.20;;;4.32;;
35518;SDS011;21627;48.216;16.482;2023-06-22T11:57:38;15.52;;;3.95;;
35518;SDS011;21627;48.216;16.482;2023-06-22T12:00:18;14.77;;;4.22;;
35518;SDS011;21627;48.216;16.482;2023-06-22T12:02:47;9.95;;;3.78;;
35518;SDS011;21627;48.216;16.482;2023-06-22T12:05:14;11.25;;;3.83;;
35518;SDS011;21627;48.216;16.482;2023-06-22T12:07:41;13.32;;;4.40;;
35518;SDS011;21627;48.216;16.482;2023-06-22T12:10:08;12.35;;;4.50;;
35518;SDS011;21627;48.216;16.482;2023-06-22T12:12:36;11.63;;;4.18;;
35518;SDS011;21627;48.216;16.482;2023-06-22T12:15:03;14.43;;;4.40;;
35518;SDS011;21627;48.216;16.482;2023-06-22T12:17:32;14.30;;;4.35;;
35518;SDS011;21627;48.216;16.482;2023-06-22T12:20:00;7.40;;;3.83;;
35518;SDS011;21627;48.216;16.482;2023-06-22T12:22:28;24.17;;;4.80;;
35518;SDS011;21627;48.216;16.482;2023-06-22T12:24:55;11.35;;;4.18;;
35518;SDS011;21627;48.216;16.482;2023-06-22T12:27:22;16.77;;;4.20;;
35518;SDS011;21627;48.216;16.482;2023-06-22T12:29:49;17.40;;;4.45;;
35518;SDS011;21627;48.216;16.482;2023-06-22T12:32:16;18.60;;;4.57;;
35518;SDS011;21627;48.216;16.482;2023-06-22T12:34:44;11.27;;;4.30;;
35518;SDS011;21627;48.216;16.482;2023-06-22T12:37:11;11.60;;;3.85;;
35518;SDS011;21627;48.216;16.482;2023-06-22T12:39:40;15.38;;;4.15;;
35518;SDS011;21627;48.216;16.482;2023-06-22T12:42:08;8.40;;;3.05;;
35518;SDS011;21627;48.216;16.482;2023-06-22T12:44:37;12.35;;;4.30;;
35518;SDS011;21627;48.216;16.482;2023-06-22T12:47:05;12.35;;;4.28;;
35518;SDS011;21627;48.216;16.482;2023-06-22T12:49:32;16.63;;;3.72;;
35518;SDS011;21627;48.216;16.482;2023-06-22T12:51:59;16.75;;;3.78;;
35518;SDS011;21627;48.216;16.482;2023-06-22T12:54:26;23.80;;;4.55;;
35518;SDS011;21627;48.216;16.482;2023-06-22T12:56:58;12.80;;;4.63;;
35518;SDS011;21627;48.216;16.482;2023-06-22T12:59:25;18.75;;;4.25;;
35518;SDS011;21627;48.216;16.482;2023-06-22T13:01:52;12.55;;;3.75;;
35518;SDS011;21627;48.216;16.482;2023-06-22T13:04:20;9.50;;;3.75;;
35518;SDS011;21627;48.216;16.482;2023-06-22T13:06:47;10.07;;;4.15;;
35518;SDS011;21627;48.216;16.482;2023-06-22T13:09:18;12.27;;;3.95;;
35518;SDS011;21627;48.216;16.482;2023-06-22T13:11:47;15.88;;;4.60;;
35518;SDS011;21627;48.216;16.482;2023-06-22T13:14:14;12.40;;;3.92;;
35518;SDS011;21627;48.216;16.482;2023-06-22T13:16:42;9.15;;;4.00;;
35518;SDS011;21627;48.216;16.482;2023-06-22T13:19:09;14.70;;;4.43;;
35518;SDS011;21627;48.216;16.482;2023-06-22T13:21:36;13.55;;;3.78;;
35518;SDS011;21627;48.216;16.482;2023-06-22T13:24:04;19.05;;;3.90;;
35518;SDS011;21627;48.216;16.482;2023-06-22T13:26:32;15.90;;;4.40;;
35518;SDS011;21627;48.216;16.482;2023-06-22T13:28:59;19.30;;;4.32;;
35518;SDS011;21627;48.216;16.482;2023-06-22T13:31:27;13.48;;;3.97;;
35518;SDS011;21627;48.216;16.482;2023-06-22T13:33:54;12.85;;;4.25;;
35518;SDS011;21627;48.216;16.482;2023-06-22T13:36:21;9.88;;;3.70;;
35518;SDS011;21627;48.216;16.482;2023-06-22T13:38:49;16.95;;;4.25;;
35518;SDS011;21627;48.216;16.482;2023-06-22T13:41:16;12.27;;;4.18;;
35518;SDS011;21627;48.216;16.482;2023-06-22T13:43:43;18.00;;;4.40;;
35518;SDS011;21627;48.216;16.482;2023-06-22T13:46:10;14.05;;;4.68;;
35518;SDS011;21627;48.216;16.482;2023-06-22T13:48:37;13.02;;;4.03;;
35518;SDS011;21627;48.216;16.482;2023-06-22T13:51:05;11.55;;;4.22;;
35518;SDS011;21627;48.216;16.482;2023-06-22T13:53:32;15.57;;;4.57;;
35518;SDS011;21627;48.216;16.482;2023-06-22T13:55:59;21.15;;;4.40;;
35518;SDS011;21627;48.216;16.482;2023-06-22T13:58:26;20.73;;;5.28;;
35518;SDS011;21627;48.216;16.482;2023-06-22T14:00:53;15.02;;;3.90;;
35518;SDS011;21627;48.216;16.482;2023-06-22T14:03:23;13.40;;;3.92;;
35518;SDS011;21627;48.216;16.482;2023-06-22T14:05:50;14.75;;;3.88;;
35518;SDS011;21627;48.216;16.482;2023-06-22T14:08:20;11.52;;;4.45;;
35518;SDS011;21627;48.216;16.482;2023-06-22T14:10:52;19.17;;;4.53;;
35518;SDS011;21627;48.216;16.482;2023-06-22T14:13:20;15.73;;;4.63;;
35518;SDS011;21627;48.216;16.482;2023-06-22T14:15:48;18.13;;;4.93;;
35518;SDS011;21627;48.216;16.482;2023-06-22T14:18:15;23.02;;;4.65;;
35518;SDS011;21627;48.216;16.482;2023-06-22T14:20:42;14.60;;;4.95;;
35518;SDS011;21627;48.216;16.482;2023-06-22T14:23:09;19.63;;;4.40;;
35518;SDS011;21627;48.216;16.482;2023-06-22T14:25:36;17.17;;;4.70;;
35518;SDS011;21627;48.216;16.482;2023-06-22T14:28:03;20.10;;;5.07;;
35518;SDS011;21627;48.216;16.482;2023-06-22T14:30:30;19.27;;;4.43;;
35518;SDS011;21627;48.216;16.482;2023-06-22T14:32:57;10.68;;;4.68;;
35518;SDS011;21627;48.216;16.482;2023-06-22T14:35:25;16.20;;;5.25;;
35518;SDS011;21627;48.216;16.482;2023-06-22T14:37:52;17.13;;;5.22;;
35518;SDS011;21627;48.216;16.482;2023-06-22T14:40:19;24.48;;;5.43;;